Time;durP1;ratioP1;P1;durP2;ratioP2;P2;SDS_P1;SDS_P2;PMS_P1;PMS_P2;Temp;Humidity;BMP_temperature;BMP_pressure;BME280_temperature;BME280_humidity;BME280_pressure;Samples;Min_cycle;Max_cycle;Signal;HPM_P1;HPM_P2
2024/01/26 00:10:46;;;;;;;23.90;6.50;;;;;;;3.44;100.00;99546.94;273652;1267;22387;-88
2024/01/26 00:17:43;;;;;;;18.10;6.50;;;;;;;3.43;100.00;99552.39;274265;1266;22292;-88
2024/01/26 00:24:16;;;;;;;17.70;6.00;;;;;;;3.41;100.00;99564.67;274334;1253;23455;-89
2024/01/26 00:30:42;;;;;;;22.40;6.50;;;;;;;3.39;100.00;99573.71;274313;1273;22232;-87
2024/01/26 00:44:59;;;;;;;14.70;4.40;;;;;;;3.38;100.00;99581.79;274105;1274;22333;-89
2024/01/26 00:51:45;;;;;;;10.90;3.60;;;;;;;3.38;100.00;99586.42;273762;1270;22212;-88
2024/01/26 00:58:10;;;;;;;13.50;4.40;;;;;;;3.36;100.00;99595.36;272865;1280;23056;-90
2024/01/26 01:04:58;;;;;;;8.60;4.20;;;;;;;3.31;100.00;99603.80;272746;1281;22301;-88
2024/01/26 01:11:03;;;;;;;13.10;4.80;;;;;;;3.24;100.00;99609.48;271152;1273;23797;-88
2024/01/26 01:17:05;;;;;;;16.70;4.90;;;;;;;3.15;100.00;99611.33;272543;1275;23757;-89
2024/01/26 01:23:07;;;;;;;17.00;5.50;;;;;;;3.07;100.00;99615.00;272816;1271;23160;-88
2024/01/26 01:29:09;;;;;;;15.50;5.50;;;;;;;3.01;100.00;99613.73;272385;1266;22545;-89
2024/01/26 01:35:11;;;;;;;20.20;6.00;;;;;;;2.94;100.00;99615.17;272092;1266;22271;-88
2024/01/26 01:41:13;;;;;;;18.40;6.50;;;;;;;2.90;100.00;99619.84;273841;1266;22560;-88
2024/01/26 01:47:15;;;;;;;11.40;5.80;;;;;;;2.81;100.00;99610.81;272933;1264;22222;-89
2024/01/26 01:53:18;;;;;;;12.20;5.40;;;;;;;2.76;100.00;99616.18;273970;1267;22220;-89
2024/01/26 01:59:21;;;;;;;12.90;4.80;;;;;;;2.72;100.00;99622.23;273950;1267;23244;-88
2024/01/26 02:05:23;;;;;;;11.30;4.70;;;;;;;2.68;100.00;99621.16;273906;1266;22427;-89
2024/01/26 02:11:25;;;;;;;14.50;4.70;;;;;;;2.67;100.00;99618.95;274054;1266;23760;-88
2024/01/26 02:17:33;;;;;;;19.40;5.90;;;;;;;2.66;100.00;99627.69;274013;1266;22361;-88
2024/01/26 02:23:41;;;;;;;13.70;6.20;;;;;;;2.61;100.00;99631.44;274044;1266;23127;-89
2024/01/26 02:29:44;;;;;;;50.80;12.50;;;;;;;2.55;100.00;99630.55;271374;1266;23424;-88
2024/01/26 02:35:49;;;;;;;12.30;5.70;;;;;;;2.45;100.00;99642.86;271494;1254;22563;-91
2024/01/26 02:41:53;;;;;;;4.60;2.80;;;;;;;2.30;100.00;99638.77;269928;1269;22521;-92
2024/01/26 02:47:56;;;;;;;7.00;2.70;;;;;;;2.21;100.00;99640.52;270249;1270;22580;-92
2024/01/26 02:54:00;;;;;;;9.30;4.90;;;;;;;2.16;100.00;99647.19;270173;1270;25303;-91
2024/01/26 03:00:04;;;;;;;11.20;5.00;;;;;;;2.10;100.00;99643.77;270330;1270;25294;-90
2024/01/26 03:06:06;;;;;;;11.30;5.00;;;;;;;2.03;100.00;99642.55;272934;1269;23650;-89
2024/01/26 03:12:08;;;;;;;8.80;5.00;;;;;;;1.99;100.00;99641.41;273455;1270;22213;-90
2024/01/26 03:18:10;;;;;;;9.50;5.70;;;;;;;1.98;100.00;99644.95;273139;1269;25392;-89
2024/01/26 03:24:12;;;;;;;9.90;5.10;;;;;;;1.97;100.00;99653.33;271478;1269;22216;-92
2024/01/26 03:30:14;;;;;;;9.30;5.90;;;;;;;1.93;100.00;99660.33;273372;1277;23425;-91
2024/01/26 03:36:17;;;;;;;12.90;6.40;;;;;;;1.94;100.00;99666.66;273340;1270;22220;-91
2024/01/26 03:42:19;;;;;;;14.20;6.20;;;;;;;1.99;100.00;99665.16;273609;1269;22220;-92
2024/01/26 03:48:22;;;;;;;19.70;7.80;;;;;;;2.03;100.00;99662.81;273459;1270;23026;-92
2024/01/26 03:54:24;;;;;;;17.60;8.20;;;;;;;2.09;100.00;99675.65;273438;1269;22258;-92
2024/01/26 04:00:26;;;;;;;21.60;8.20;;;;;;;2.15;100.00;99677.83;272887;1260;23360;-91
2024/01/26 04:06:28;;;;;;;20.60;7.90;;;;;;;2.21;100.00;99676.75;270435;1269;22549;-91
2024/01/26 04:12:30;;;;;;;24.80;8.10;;;;;;;2.24;100.00;99677.59;270375;1269;22613;-91
2024/01/26 04:18:32;;;;;;;22.20;6.70;;;;;;;2.27;100.00;99680.91;270338;1269;22537;-90
2024/01/26 04:24:35;;;;;;;31.40;8.50;;;;;;;2.29;100.00;99682.55;273354;1269;22192;-91
2024/01/26 04:30:42;;;;;;;29.10;8.70;;;;;;;2.29;100.00;99689.73;272543;1269;22613;-91
2024/01/26 04:36:47;;;;;;;22.00;7.20;;;;;;;2.32;100.00;99703.23;272105;1254;22575;-90
2024/01/26 04:42:50;;;;;;;24.00;8.20;;;;;;;2.35;100.00;99717.45;270590;1269;24289;-90
2024/01/26 04:48:53;;;;;;;21.10;8.30;;;;;;;2.39;100.00;99718.65;270435;1269;23773;-91
2024/01/26 04:54:55;;;;;;;22.70;8.30;;;;;;;2.40;100.00;99723.69;270230;1269;22768;-91
2024/01/26 05:00:57;;;;;;;22.30;6.80;;;;;;;2.43;100.00;99722.38;270019;1261;22298;-92
2024/01/26 05:06:59;;;;;;;24.00;6.90;;;;;;;2.43;100.00;99735.70;270844;1269;22539;-91
2024/01/26 05:13:01;;;;;;;18.30;6.80;;;;;;;2.40;100.00;99739.48;269507;1270;22585;-90
2024/01/26 05:19:03;;;;;;;27.50;8.10;;;;;;;2.39;100.00;99740.92;270463;1269;22591;-91
2024/01/26 05:25:05;;;;;;;29.70;8.00;;;;;;;2.38;100.00;99745.14;270704;1269;23394;-90
2024/01/26 05:31:07;;;;;;;24.40;8.20;;;;;;;2.40;100.00;99754.19;272301;1269;229015;-91
2024/01/26 05:37:09;;;;;;;22.80;8.30;;;;;;;2.41;100.00;99750.81;272379;1269;22310;-90
2024/01/26 05:43:12;;;;;;;20.30;8.90;;;;;;;2.42;100.00;99753.65;271538;1270;22309;-90
2024/01/26 05:49:14;;;;;;;26.90;9.30;;;;;;;2.42;100.00;99759.91;272336;1260;23113;-90
2024/01/26 05:55:16;;;;;;;27.40;11.60;;;;;;;2.43;100.00;99758.98;271972;1269;23244;-90
2024/01/26 06:01:18;;;;;;;34.10;10.70;;;;;;;2.44;100.00;99752.91;272593;1269;22358;-91
2024/01/26 06:07:20;;;;;;;20.40;10.20;;;;;;;2.42;100.00;99750.83;272183;1269;22396;-90
2024/01/26 06:13:25;;;;;;;21.80;8.80;;;;;;;2.38;100.00;99750.88;270445;1269;22613;-92
2024/01/26 06:19:27;;;;;;;21.00;7.60;;;;;;;2.35;100.00;99756.44;269240;1271;25386;-91
2024/01/26 06:25:29;;;;;;;30.60;10.30;;;;;;;2.34;100.00;99761.94;270011;1269;22561;-91
2024/01/26 06:31:35;;;;;;;26.80;10.00;;;;;;;2.34;100.00;99756.64;269969;1269;22485;-90
2024/01/26 06:37:37;;;;;;;27.10;11.00;;;;;;;2.35;100.00;99759.05;271101;1269;23166;-90
2024/01/26 06:43:39;;;;;;;42.70;11.90;;;;;;;2.35;100.00;99767.96;273914;1269;22464;-90
2024/01/26 06:49:41;;;;;;;33.90;11.40;;;;;;;2.38;100.00;99769.26;273710;1269;22328;-91
2024/01/26 06:55:43;;;;;;;24.10;8.40;;;;;;;2.40;100.00;99773.63;272041;1269;22217;-90
2024/01/26 07:01:46;;;;;;;25.70;9.30;;;;;;;2.42;100.00;99774.82;271108;1269;23421;-90
2024/01/26 07:07:47;;;;;;;25.50;9.60;;;;;;;2.44;100.00;99779.77;271290;1269;22557;-90
2024/01/26 07:13:50;;;;;;;30.10;9.50;;;;;;;2.45;100.00;99784.88;271368;1266;22692;-92
2024/01/26 07:19:52;;;;;;;22.90;9.00;;;;;;;2.51;100.00;99787.20;270823;1269;23710;-90
2024/01/26 07:25:54;;;;;;;25.90;9.60;;;;;;;2.58;100.00;99785.42;270314;1262;22312;-90
2024/01/26 07:31:58;;;;;;;31.20;12.80;;;;;;;2.63;100.00;99779.63;272297;1269;23319;-90
2024/01/26 07:38:00;;;;;;;35.70;11.30;;;;;;;2.65;100.00;99777.36;271973;1269;22508;-91
2024/01/26 07:44:05;;;;;;;26.50;10.90;;;;;;;2.68;100.00;99787.83;273100;1268;22264;-90
2024/01/26 07:50:07;;;;;;;34.50;12.20;;;;;;;2.71;100.00;99793.44;272298;1269;22290;-91
2024/01/26 07:56:09;;;;;;;33.90;12.40;;;;;;;2.76;100.00;99797.61;272125;1269;22530;-90
2024/01/26 08:02:11;;;;;;;33.70;13.20;;;;;;;2.79;100.00;99797.31;271399;1269;25891;-90
2024/01/26 08:08:13;;;;;;;39.30;14.10;;;;;;;2.79;100.00;99795.25;269812;1269;22617;-90
2024/01/26 08:14:16;;;;;;;33.30;12.70;;;;;;;2.81;100.00;99801.98;271545;1269;22272;-89
2024/01/26 08:20:18;;;;;;;33.00;12.60;;;;;;;2.83;100.00;99810.15;273598;1269;22438;-90
2024/01/26 08:26:22;;;;;;;33.70;13.30;;;;;;;2.86;100.00;99805.77;273662;1269;22739;-91
2024/01/26 08:32:27;;;;;;;29.70;11.10;;;;;;;2.92;100.00;99810.64;270538;1269;22574;-90
2024/01/26 08:38:30;;;;;;;45.50;15.40;;;;;;;2.96;100.00;99810.24;269575;1269;22591;-91
2024/01/26 08:44:36;;;;;;;33.80;13.30;;;;;;;3.05;100.00;99816.99;270276;1269;22531;-92
2024/01/26 08:50:54;;;;;;;24.90;10.80;;;;;;;3.08;100.00;99820.14;271686;1269;22376;-90
2024/01/26 08:56:56;;;;;;;31.80;13.90;;;;;;;3.09;100.00;99815.24;272051;1269;22366;-91
2024/01/26 09:02:59;;;;;;;32.20;14.10;;;;;;;3.11;100.00;99822.77;272204;1269;22513;-90
2024/01/26 09:09:02;;;;;;;33.70;14.60;;;;;;;3.16;100.00;99824.88;273371;1269;23837;-91
2024/01/26 09:15:22;;;;;;;33.30;14.70;;;;;;;3.24;100.00;99815.59;273434;1267;22491;-90
2024/01/26 09:21:24;;;;;;;36.30;13.60;;;;;;;3.33;100.00;99820.91;273435;1269;23097;-90
2024/01/26 09:27:26;;;;;;;35.70;15.10;;;;;;;3.39;100.00;99823.73;273034;1269;22575;-90
2024/01/26 09:33:28;;;;;;;38.90;14.70;;;;;;;3.43;100.00;99811.23;270178;1269;22547;-90
2024/01/26 09:39:31;;;;;;;34.30;13.50;;;;;;;3.45;100.00;99796.25;270791;1269;22215;-89
2024/01/26 09:45:34;;;;;;;32.90;14.10;;;;;;;3.43;100.00;99791.44;273084;1269;22876;-89
2024/01/26 09:51:38;;;;;;;31.50;12.60;;;;;;;3.43;100.00;99788.72;271087;1269;22553;-89
2024/01/26 09:57:45;;;;;;;29.50;12.80;;;;;;;3.44;100.00;99791.18;272537;1269;22542;-91
2024/01/26 10:03:53;;;;;;;36.60;14.40;;;;;;;3.44;100.00;99786.95;272085;1269;22434;-90
2024/01/26 10:09:57;;;;;;;37.10;17.10;;;;;;;3.46;100.00;99779.31;272676;1268;22431;-89
2024/01/26 10:16:11;;;;;;;33.80;15.30;;;;;;;3.53;100.00;99773.31;273314;1269;23827;-89
2024/01/26 10:22:41;;;;;;;32.90;14.10;;;;;;;3.66;100.00;99763.54;273104;1269;23366;-91
2024/01/26 10:28:45;;;;;;;29.90;13.00;;;;;;;3.76;100.00;99758.88;273255;1269;22534;-90
2024/01/26 10:34:48;;;;;;;29.70;12.20;;;;;;;3.82;100.00;99751.95;271423;1269;23083;-91
2024/01/26 10:40:56;;;;;;;27.30;11.60;;;;;;;3.80;100.00;99743.83;272872;1269;22416;-91
2024/01/26 10:46:59;;;;;;;30.50;12.70;;;;;;;3.80;100.00;99741.21;273716;1269;23773;-89
2024/01/26 10:53:04;;;;;;;37.10;14.20;;;;;;;3.82;100.00;99744.05;272472;1269;22742;-90
2024/01/26 10:59:10;;;;;;;30.10;12.90;;;;;;;3.79;100.00;99735.85;273668;1269;22210;-88
2024/01/26 11:05:12;;;;;;;28.30;12.10;;;;;;;3.73;100.00;99727.94;273584;1269;23495;-89
2024/01/26 11:11:19;;;;;;;32.30;14.30;;;;;;;3.68;100.00;99721.03;273467;1269;22359;-89
2024/01/26 11:17:21;;;;;;;30.70;13.00;;;;;;;3.63;100.00;99717.53;273151;1269;22305;-90
2024/01/26 11:23:23;;;;;;;36.70;13.70;;;;;;;3.62;100.00;99706.26;273552;1267;22448;-89
2024/01/26 11:29:35;;;;;;;34.60;14.00;;;;;;;3.61;100.00;99694.14;273441;1269;22390;-89
2024/01/26 11:35:37;;;;;;;30.00;13.60;;;;;;;3.63;100.00;99680.77;272617;1269;22569;-89
2024/01/26 11:41:43;;;;;;;27.40;12.00;;;;;;;3.65;100.00;99665.11;272092;1269;22623;-89
2024/01/26 11:47:45;;;;;;;20.60;11.30;;;;;;;3.69;100.00;99663.22;273245;1266;22281;-90
2024/01/26 11:53:47;;;;;;;12.80;5.40;;;;;;;3.79;100.00;99654.86;273655;1268;22294;-91
2024/01/26 11:59:49;;;;;;;9.50;5.20;;;;;;;3.87;100.00;99648.83;273575;1270;22341;-90
2024/01/26 12:05:51;;;;;;;9.60;4.10;;;;;;;3.94;100.00;99645.11;272914;1266;22311;-89
2024/01/26 12:11:54;;;;;;;20.70;8.20;;;;;;;4.01;100.00;99649.12;272895;1269;23458;-90
2024/01/26 12:18:00;;;;;;;23.20;8.60;;;;;;;4.07;100.00;99653.88;273010;1266;23649;-91
2024/01/26 12:24:11;;;;;;;21.20;7.60;;;;;;;4.11;100.00;99638.10;273373;1269;22406;-89
2024/01/26 12:30:14;;;;;;;20.50;7.60;;;;;;;4.15;100.00;99626.00;270674;1269;22559;-89
2024/01/26 12:36:19;;;;;;;25.60;10.10;;;;;;;4.24;100.00;99616.73;269333;1269;26240;-88
2024/01/26 12:42:21;;;;;;;24.30;10.50;;;;;;;4.30;100.00;99615.94;269571;1271;24210;-89
2024/01/26 12:48:23;;;;;;;21.50;9.80;;;;;;;4.34;100.00;99602.57;269594;1269;22661;-91
2024/01/26 12:54:26;;;;;;;24.50;10.40;;;;;;;4.40;100.00;99592.95;270339;1270;22579;-90
2024/01/26 13:00:30;;;;;;;26.20;11.40;;;;;;;4.49;100.00;99589.14;271121;1269;22735;-89
2024/01/26 13:06:39;;;;;;;29.30;12.20;;;;;;;4.60;100.00;99573.30;272232;1269;22446;-90
2024/01/26 13:12:41;;;;;;;19.10;10.30;;;;;;;4.68;100.00;99554.77;270140;1270;22753;-90
2024/01/26 13:18:46;;;;;;;14.90;7.60;;;;;;;4.75;100.00;99538.31;272583;1269;22397;-90
2024/01/26 13:24:48;;;;;;;20.10;6.80;;;;;;;4.88;100.00;99536.59;273318;1272;22559;-90
2024/01/26 13:30:54;;;;;;;16.40;7.00;;;;;;;4.97;100.00;99535.23;272947;1270;22387;-90
2024/01/26 13:36:58;;;;;;;26.90;8.40;;;;;;;4.98;100.00;99516.46;273533;1269;22422;-90
2024/01/26 13:43:10;;;;;;;21.90;8.90;;;;;;;4.92;100.00;99507.45;273563;1269;22342;-91
2024/01/26 13:49:12;;;;;;;14.30;4.60;;;;;;;4.87;100.00;99509.36;272723;1269;22225;-90
2024/01/26 13:55:14;;;;;;;12.70;5.50;;;;;;;4.77;100.00;99502.03;272778;1270;23426;-90
2024/01/26 14:01:17;;;;;;;11.40;5.60;;;;;;;4.68;100.00;99496.53;272940;1269;22272;-91
2024/01/26 14:07:21;;;;;;;17.30;6.70;;;;;;;4.60;100.00;99487.84;273825;1270;22510;-90
2024/01/26 14:13:23;;;;;;;15.40;6.70;;;;;;;4.51;100.00;99480.80;273890;1268;22447;-89
2024/01/26 14:19:25;;;;;;;20.10;8.60;;;;;;;4.45;100.00;99472.55;273762;1268;22198;-89
2024/01/26 14:25:27;;;;;;;26.50;11.20;;;;;;;4.41;100.00;99463.78;273680;1268;22242;-88
2024/01/26 14:31:30;;;;;;;27.40;13.00;;;;;;;4.40;100.00;99461.33;270976;1269;22579;-89
2024/01/26 14:37:32;;;;;;;27.30;13.30;;;;;;;4.35;100.00;99446.03;270656;1269;22537;-90
2024/01/26 14:43:34;;;;;;;16.80;8.10;;;;;;;4.28;100.00;99437.06;272352;1269;22611;-91
2024/01/26 14:49:36;;;;;;;16.20;5.90;;;;;;;4.17;100.00;99424.95;271763;1269;22911;-90
2024/01/26 14:55:39;;;;;;;32.30;11.60;;;;;;;4.07;100.00;99405.27;273548;1269;24133;-90
2024/01/26 15:01:41;;;;;;;30.60;12.00;;;;;;;4.02;100.00;99390.88;271502;1268;22594;-89
2024/01/26 15:07:43;;;;;;;37.50;15.10;;;;;;;3.89;100.00;99383.89;270646;1267;26331;-90
2024/01/26 15:13:48;;;;;;;21.70;9.30;;;;;;;3.75;100.00;99365.70;270450;1259;22570;-90
2024/01/26 15:19:52;;;;;;;24.50;9.00;;;;;;;3.61;100.00;99358.76;271246;1269;22538;-89
2024/01/26 15:25:54;;;;;;;21.90;9.70;;;;;;;3.47;100.00;99359.38;271110;1269;22557;-90
2024/01/26 15:31:59;;;;;;;25.80;9.60;;;;;;;3.27;100.00;99348.33;269725;1269;22552;-90
2024/01/26 15:38:01;;;;;;;21.70;10.30;;;;;;;3.06;100.00;99350.01;270172;1269;22563;-89
2024/01/26 15:44:03;;;;;;;32.10;11.40;;;;;;;2.91;100.00;99350.91;270301;1269;22746;-90
2024/01/26 15:50:06;;;;;;;64.90;24.60;;;;;;;2.74;100.00;99335.58;271738;1268;22384;-89
2024/01/26 15:56:10;;;;;;;59.70;24.10;;;;;;;2.59;100.00;99310.66;273049;1270;22467;-90
2024/01/26 16:02:12;;;;;;;57.00;26.80;;;;;;;2.50;100.00;99292.06;273834;1272;22351;-90
2024/01/26 16:08:22;;;;;;;74.20;31.30;;;;;;;2.33;100.00;99280.77;272242;1269;22567;-91
2024/01/26 16:14:33;;;;;;;92.80;39.00;;;;;;;2.12;100.00;99262.27;272831;1269;22408;-90
2024/01/26 16:20:35;;;;;;;82.30;35.60;;;;;;;1.97;100.00;99258.48;272369;1269;22292;-89
2024/01/26 16:26:46;;;;;;;80.60;34.70;;;;;;;1.89;100.00;99253.67;271400;1269;22796;-89
2024/01/26 16:33:11;;;;;;;69.90;31.20;;;;;;;1.77;100.00;99244.83;272000;1269;22430;-89
2024/01/26 16:40:27;;;;;;;;;;;;;;;;;;;;;
2024/01/26 16:46:46;;;;;;;50.60;20.80;;;;;;;1.57;100.00;99226.90;273298;1270;22223;-90
2024/01/26 16:53:09;;;;;;;40.60;20.30;;;;;;;1.56;100.00;99207.73;271775;1266;22573;-89
2024/01/26 16:59:25;;;;;;;50.20;22.50;;;;;;;1.61;100.00;99202.95;272728;1270;22230;-88
2024/01/26 17:05:27;;;;;;;43.30;21.20;;;;;;;1.66;100.00;99189.77;273770;1269;22178;-88
2024/01/26 17:11:34;;;;;;;49.40;22.80;;;;;;;1.71;100.00;99182.30;273657;1269;22201;-90
2024/01/26 17:17:38;;;;;;;48.60;24.50;;;;;;;1.73;100.00;99175.09;273764;1269;23258;-92
2024/01/26 17:23:44;;;;;;;104.00;47.70;;;;;;;1.71;100.00;99161.36;273750;1270;22367;-89
2024/01/26 17:29:46;;;;;;;75.50;36.00;;;;;;;1.73;100.00;99142.07;273406;1273;22334;-91
2024/01/26 17:35:49;;;;;;;63.70;32.40;;;;;;;1.74;100.00;99132.85;273652;1274;131271;-91
2024/01/26 17:41:54;;;;;;;70.80;32.90;;;;;;;1.69;100.00;99134.02;273200;1269;22208;-90
2024/01/26 17:48:02;;;;;;;57.50;31.20;;;;;;;1.71;100.00;99126.03;273355;1273;22603;-89
2024/01/26 17:54:05;;;;;;;81.00;41.20;;;;;;;1.77;100.00;99111.11;273782;1267;22230;-90
2024/01/26 18:00:07;;;;;;;74.10;36.00;;;;;;;1.77;100.00;99107.11;273562;1270;22243;-90
2024/01/26 18:06:09;;;;;;;67.80;35.10;;;;;;;1.77;100.00;99106.52;271928;1270;22720;-90
2024/01/26 18:12:13;;;;;;;84.40;38.80;;;;;;;1.81;100.00;99100.81;273619;1267;23473;-89
2024/01/26 18:18:19;;;;;;;75.30;36.70;;;;;;;1.81;100.00;99083.00;273433;1268;22420;-89
2024/01/26 18:24:24;;;;;;;83.80;38.00;;;;;;;1.81;100.00;99078.17;272930;1270;22531;-91
2024/01/26 18:30:31;;;;;;;77.80;37.40;;;;;;;1.83;100.00;99070.09;272150;1269;22483;-90
2024/01/26 18:36:44;;;;;;;83.40;38.50;;;;;;;1.83;100.00;99068.20;272918;1273;22603;-89
2024/01/26 18:42:46;;;;;;;95.50;43.30;;;;;;;1.83;100.00;99060.52;273813;1270;22969;-89
2024/01/26 18:48:49;;;;;;;93.60;44.00;;;;;;;1.88;100.00;99044.23;271749;1267;22565;-91
2024/01/26 18:54:54;;;;;;;93.40;45.50;;;;;;;1.98;100.00;99036.35;270831;1270;22571;-89
2024/01/26 19:00:59;;;;;;;96.40;46.10;;;;;;;2.02;100.00;99035.69;272840;1270;22225;-89
2024/01/26 19:07:03;;;;;;;88.10;43.00;;;;;;;2.05;100.00;99037.15;273827;1267;22341;-89
2024/01/26 19:13:06;;;;;;;70.40;38.20;;;;;;;2.11;100.00;99038.90;273451;1270;23382;-89
2024/01/26 19:19:08;;;;;;;79.70;40.40;;;;;;;2.18;100.00;99035.11;273612;1269;22201;-90
2024/01/26 19:25:10;;;;;;;80.70;42.10;;;;;;;2.26;100.00;99039.30;273020;1267;23316;-90
2024/01/26 19:31:15;;;;;;;84.70;43.70;;;;;;;2.29;100.00;99036.69;273688;1270;23538;-89
2024/01/26 19:37:20;;;;;;;86.20;47.80;;;;;;;2.29;100.00;99038.09;273566;1270;22313;-89
2024/01/26 19:43:22;;;;;;;97.00;49.00;;;;;;;2.32;100.00;99041.80;273070;1270;23384;-89
2024/01/26 19:49:24;;;;;;;100.20;52.00;;;;;;;2.34;100.00;99042.29;271564;1270;22521;-89
2024/01/26 19:55:27;;;;;;;114.70;56.50;;;;;;;2.32;100.00;99034.27;272948;1269;22559;-89
2024/01/26 20:01:29;;;;;;;113.70;59.00;;;;;;;2.31;100.00;99020.80;272111;1269;22232;-90
2024/01/26 20:07:31;;;;;;;106.50;57.30;;;;;;;2.34;100.00;99011.90;273745;1270;23211;-91
2024/01/26 20:13:37;;;;;;;132.50;64.20;;;;;;;2.35;100.00;99000.27;273628;1269;23216;-92
2024/01/26 20:19:40;;;;;;;127.70;64.90;;;;;;;2.34;100.00;98991.50;273832;1269;22211;-91
2024/01/26 20:25:43;;;;;;;124.30;60.80;;;;;;;2.36;100.00;98991.43;273641;1269;23374;-90
2024/01/26 20:31:45;;;;;;;119.70;59.50;;;;;;;2.41;100.00;98994.64;273664;1269;22235;-90
2024/01/26 20:37:47;;;;;;;119.90;58.20;;;;;;;2.46;100.00;99007.84;273765;1269;22290;-91
2024/01/26 20:43:49;;;;;;;115.50;59.10;;;;;;;2.48;100.00;99021.63;273914;1269;22328;-90
2024/01/26 20:49:51;;;;;;;108.70;54.30;;;;;;;2.47;100.00;99021.67;273666;1268;23128;-90
2024/01/26 20:55:53;;;;;;;97.90;51.30;;;;;;;2.48;100.00;99017.45;273201;1269;22344;-90
2024/01/26 21:01:55;;;;;;;109.60;53.40;;;;;;;2.53;100.00;99020.50;273927;1270;22258;-91
2024/01/26 21:07:58;;;;;;;120.40;60.80;;;;;;;2.57;100.00;99021.48;273943;1269;23282;-91
2024/01/26 21:14:01;;;;;;;139.50;70.40;;;;;;;2.62;100.00;99029.55;273891;1269;23687;-90
2024/01/26 21:20:04;;;;;;;122.90;65.10;;;;;;;2.67;100.00;99028.60;273554;1269;22396;-90
2024/01/26 21:26:05;;;;;;;130.40;70.10;;;;;;;2.69;100.00;99036.66;273935;1268;22162;-91
2024/01/26 21:32:12;;;;;;;122.60;60.30;;;;;;;2.74;100.00;99041.63;273861;1269;22325;-93
2024/01/26 21:38:14;;;;;;;109.30;59.90;;;;;;;2.88;100.00;99038.09;272069;1270;22621;-91
2024/01/26 21:44:19;;;;;;;91.00;48.70;;;;;;;3.10;100.00;99043.16;270890;1269;23724;-92
2024/01/26 21:50:22;;;;;;;52.80;28.20;;;;;;;3.36;100.00;99051.60;270427;1267;22538;-90
2024/01/26 21:56:29;;;;;;;32.20;18.20;;;;;;;3.59;100.00;99049.54;270745;1270;22584;-92
2024/01/26 22:02:47;;;;;;;;;;;;;;;;;;;;;
2024/01/26 22:08:50;;;;;;;26.20;12.30;;;;;;;4.03;100.00;99069.57;271089;1269;22225;-91
2024/01/26 22:14:52;;;;;;;24.40;11.90;;;;;;;4.15;100.00;99080.48;272433;1269;22910;-91
2024/01/26 22:20:56;;;;;;;21.30;8.60;;;;;;;4.26;100.00;99095.68;272700;1269;23345;-93
2024/01/26 22:27:03;;;;;;;16.60;9.30;;;;;;;4.39;100.00;99119.38;270196;1269;23858;-91
2024/01/26 22:33:05;;;;;;;18.50;8.20;;;;;;;4.41;100.00;99116.16;271140;1268;22297;-93
2024/01/26 22:39:08;;;;;;;23.00;11.40;;;;;;;4.38;100.00;99121.52;271982;1266;22571;-91
2024/01/26 22:45:10;;;;;;;23.90;11.80;;;;;;;4.40;100.00;99137.18;269938;1270;22838;-91
2024/01/26 22:51:12;;;;;;;18.60;9.10;;;;;;;4.43;100.00;99152.05;272995;1269;22404;-91
2024/01/26 22:57:18;;;;;;;15.20;7.40;;;;;;;4.48;100.00;99148.15;272894;1268;22188;-90
2024/01/26 23:03:20;;;;;;;10.70;6.10;;;;;;;4.51;100.00;99151.67;272599;1270;22546;-91
2024/01/26 23:09:23;;;;;;;13.20;7.80;;;;;;;4.60;100.00;99163.33;273020;1269;22943;-91
2024/01/26 23:15:31;;;;;;;15.80;6.80;;;;;;;4.63;100.00;99174.83;272635;1269;22262;-90
2024/01/26 23:21:33;;;;;;;9.40;4.60;;;;;;;4.61;100.00;99188.84;269922;1269;22830;-92
2024/01/26 23:27:36;;;;;;;9.70;4.30;;;;;;;4.60;100.00;99196.80;269825;1269;22556;-89
2024/01/26 23:33:38;;;;;;;9.40;3.60;;;;;;;4.62;100.00;99202.91;270375;1269;25313;-92
2024/01/26 23:39:41;;;;;;;7.40;3.20;;;;;;;4.65;100.00;99210.39;270756;1269;24415;-91
2024/01/26 23:45:43;;;;;;;8.40;3.80;;;;;;;4.67;100.00;99215.02;270938;1268;22549;-90
2024/01/26 23:51:45;;;;;;;10.20;3.10;;;;;;;4.73;100.00;99218.04;269929;1269;23224;-91
2024/01/26 23:57:55;;;;;;;5.40;1.10;;;;;;;4.69;100.00;99250.27;271927;1269;22938;-90
